Time;durP1;ratioP1;P1;durP2;ratioP2;P2;SDS_P1;SDS_P2;PMS_P1;PMS_P2;Temp;Humidity;BMP_temperature;BMP_pressure;BME280_temperature;BME280_humidity;BME280_pressure;Samples;Min_cycle;Max_cycle;Signal;HPM_P1;HPM_P2
2023/10/13 00:00:36;;;;;;;7.60;3.40;;;;;;;13.16;86.78;100184.80;131275;1251;107587;-77
2023/10/13 00:04:05;;;;;;;7.30;4.10;;;;;;;13.19;86.84;100183.65;131232;1257;109969;-77
2023/10/13 00:07:11;;;;;;;9.70;4.20;;;;;;;13.20;86.87;100188.20;131250;1250;108511;-77
2023/10/13 00:10:18;;;;;;;7.40;3.50;;;;;;;13.19;86.77;100183.45;131215;1254;107648;-77
2023/10/13 00:13:24;;;;;;;5.20;2.90;;;;;;;13.18;86.69;100184.46;131241;1254;107758;-77
2023/10/13 00:16:30;;;;;;;6.90;3.00;;;;;;;13.13;86.65;100190.17;131244;1257;106521;-77
2023/10/13 00:19:44;;;;;;;6.70;2.90;;;;;;;13.09;86.67;100180.66;131187;1262;106758;-79
2023/10/13 00:22:50;;;;;;;6.00;2.90;;;;;;;13.05;86.54;100179.98;131210;1251;107111;-77
2023/10/13 00:25:59;;;;;;;5.60;2.80;;;;;;;13.00;86.41;100179.28;131290;1253;106920;-77
2023/10/13 00:29:16;;;;;;;5.10;2.60;;;;;;;12.95;86.23;100184.45;131210;1263;107107;-76
2023/10/13 00:32:26;;;;;;;6.70;3.20;;;;;;;12.88;86.15;100195.03;131363;1253;106562;-77
2023/10/13 00:35:36;;;;;;;7.00;3.40;;;;;;;12.79;86.17;100195.86;131248;1255;106711;-76
2023/10/13 00:38:42;;;;;;;5.30;3.10;;;;;;;12.71;85.99;100197.52;131226;1259;107715;-77
2023/10/13 00:41:52;;;;;;;5.60;2.90;;;;;;;12.63;86.15;100198.34;131315;1251;107477;-77
2023/10/13 00:44:58;;;;;;;5.40;2.90;;;;;;;12.62;86.27;100186.90;131269;1255;108544;-77
2023/10/13 00:48:10;;;;;;;6.40;3.30;;;;;;;12.61;86.10;100195.77;131299;1250;107430;-77
2023/10/13 00:51:32;;;;;;;6.00;3.60;;;;;;;12.51;86.33;100197.29;131202;1251;106597;-77
2023/10/13 00:54:39;;;;;;;6.00;3.20;;;;;;;12.53;86.51;100190.50;131209;1256;106861;-77
2023/10/13 00:57:46;;;;;;;4.80;2.90;;;;;;;12.54;86.50;100189.00;131308;1251;108529;-78
2023/10/13 01:01:17;;;;;;;5.70;3.30;;;;;;;12.55;86.44;100176.73;131264;1252;108401;-77
2023/10/13 01:04:27;;;;;;;6.40;3.50;;;;;;;12.56;86.53;100178.39;131362;1251;108996;-77
2023/10/13 01:07:37;;;;;;;7.70;3.30;;;;;;;12.56;86.68;100188.23;131279;1251;107690;-77
2023/10/13 01:10:43;;;;;;;4.40;3.20;;;;;;;12.60;86.75;100192.82;131271;1251;105645;-77
2023/10/13 01:13:51;;;;;;;8.00;4.30;;;;;;;12.66;86.75;100194.95;131273;1253;107879;-77
2023/10/13 01:16:58;;;;;;;7.10;4.50;;;;;;;12.73;86.77;100199.06;131275;1253;107660;-77
2023/10/13 01:20:06;;;;;;;7.10;4.40;;;;;;;12.77;86.67;100196.62;131280;1251;107686;-77
2023/10/13 01:23:18;;;;;;;7.20;4.50;;;;;;;12.79;86.61;100197.83;131183;1255;107817;-77
2023/10/13 01:26:26;;;;;;;7.40;3.90;;;;;;;12.80;86.71;100202.95;131106;1257;105922;-77
2023/10/13 01:29:31;;;;;;;5.60;3.10;;;;;;;12.81;86.70;100200.90;131275;1251;107849;-76
2023/10/13 01:32:40;;;;;;;7.40;3.50;;;;;;;12.81;86.77;100207.79;131314;1253;107770;-77
2023/10/13 01:35:48;;;;;;;5.90;3.20;;;;;;;12.83;86.73;100208.73;131400;1253;106891;-77
2023/10/13 01:38:53;;;;;;;6.30;3.70;;;;;;;12.83;86.56;100212.39;131252;1251;108454;-77
2023/10/13 01:42:01;;;;;;;5.80;3.70;;;;;;;12.83;86.81;100210.11;131311;1254;107556;-77
2023/10/13 01:45:08;;;;;;;5.00;3.30;;;;;;;12.85;86.86;100211.27;131301;1251;108528;-77
2023/10/13 01:48:15;;;;;;;5.40;3.10;;;;;;;12.87;86.89;100208.77;131293;1263;107926;-77
2023/10/13 01:51:23;;;;;;;6.80;3.30;;;;;;;12.88;86.90;100203.64;131257;1258;106891;-77
2023/10/13 01:54:28;;;;;;;6.00;3.10;;;;;;;12.87;87.02;100206.05;131146;1251;108536;-76
2023/10/13 01:57:34;;;;;;;5.60;3.00;;;;;;;12.90;86.99;100208.92;131203;1254;107669;-77
2023/10/13 02:00:41;;;;;;;6.40;3.20;;;;;;;12.92;86.94;100210.30;131150;1254;106591;-76
2023/10/13 02:03:48;;;;;;;7.00;3.30;;;;;;;12.94;86.96;100208.89;131370;1250;107424;-77
2023/10/13 02:06:56;;;;;;;6.00;3.90;;;;;;;12.95;86.93;100208.79;131287;1263;109032;-77
2023/10/13 02:10:04;;;;;;;5.30;2.90;;;;;;;12.94;86.89;100208.85;131182;1254;106580;-77
2023/10/13 02:13:15;;;;;;;6.90;3.40;;;;;;;12.94;86.97;100210.33;131198;1254;107650;-76
2023/10/13 02:16:21;;;;;;;4.50;2.70;;;;;;;12.94;86.91;100206.88;131198;1251;106843;-77
2023/10/13 02:19:28;;;;;;;6.40;2.70;;;;;;;12.94;86.94;100209.23;131228;1251;106437;-77
2023/10/13 02:22:37;;;;;;;6.20;3.10;;;;;;;12.96;86.87;100208.86;131304;1263;108525;-77
2023/10/13 02:25:45;;;;;;;5.50;3.00;;;;;;;12.97;87.02;100218.55;131299;1249;106689;-77
2023/10/13 02:28:54;;;;;;;6.40;3.00;;;;;;;12.93;86.99;100217.48;131167;1249;109033;-79
2023/10/13 02:32:04;;;;;;;5.50;2.90;;;;;;;12.92;87.15;100212.34;132079;1250;108493;-77
2023/10/13 02:35:15;;;;;;;5.30;3.10;;;;;;;12.93;86.99;100198.98;131435;1251;109018;-77
2023/10/13 02:38:28;;;;;;;6.60;2.90;;;;;;;12.97;87.13;100196.76;131410;1251;108559;-79
2023/10/13 02:41:36;;;;;;;13.30;6.50;;;;;;;13.01;87.19;100198.16;131197;1254;107816;-77
2023/10/13 02:44:46;;;;;;;5.70;3.40;;;;;;;13.01;87.17;100199.23;131841;1250;108696;-78
2023/10/13 02:48:10;;;;;;;8.10;3.60;;;;;;;13.00;87.18;100202.92;131494;1253;108444;-78
2023/10/13 02:51:16;;;;;;;6.40;3.00;;;;;;;12.98;87.30;100202.92;131276;1251;107381;-77
2023/10/13 02:54:22;;;;;;;5.50;3.20;;;;;;;13.00;87.33;100207.34;131210;1253;106467;-77
2023/10/13 02:57:27;;;;;;;6.00;3.50;;;;;;;12.99;87.32;100202.83;131129;1251;107745;-77
2023/10/13 03:00:33;;;;;;;5.10;3.20;;;;;;;13.01;87.43;100195.41;131194;1253;107764;-77
2023/10/13 03:03:41;;;;;;;8.10;3.30;;;;;;;13.04;87.41;100198.70;131110;1251;108880;-77
2023/10/13 03:06:47;;;;;;;7.30;3.80;;;;;;;13.02;87.27;100210.31;131090;1253;107713;-77
2023/10/13 03:09:57;;;;;;;7.30;3.40;;;;;;;12.98;87.42;100209.86;131071;1251;107629;-77
2023/10/13 03:13:03;;;;;;;10.30;3.80;;;;;;;12.99;87.66;100207.28;130999;1251;108609;-78
2023/10/13 03:16:16;;;;;;;5.20;3.10;;;;;;;13.01;87.69;100208.88;130961;1251;107709;-78
2023/10/13 03:19:22;;;;;;;5.90;3.60;;;;;;;13.01;87.73;100205.26;130941;1255;106344;-79
2023/10/13 03:22:31;;;;;;;7.10;3.40;;;;;;;13.03;87.70;100208.07;130964;1255;106197;-77
2023/10/13 03:25:42;;;;;;;6.10;3.20;;;;;;;13.06;87.67;100206.15;131020;1256;106926;-79
2023/10/13 03:28:52;;;;;;;6.90;3.40;;;;;;;13.06;87.65;100206.15;131017;1251;108819;-78
2023/10/13 03:32:06;;;;;;;6.60;3.10;;;;;;;13.04;87.75;100206.30;131045;1266;108351;-78
2023/10/13 03:35:13;;;;;;;18.80;4.00;;;;;;;13.05;87.83;100207.99;131070;1255;106757;-77
2023/10/13 03:38:19;;;;;;;9.00;3.50;;;;;;;13.06;87.78;100210.48;131026;1255;107695;-77
2023/10/13 03:41:30;;;;;;;7.00;3.50;;;;;;;13.07;87.82;100213.02;131081;1254;107774;-78
2023/10/13 03:44:38;;;;;;;7.70;3.90;;;;;;;13.08;87.84;100213.55;131083;1253;108667;-77
2023/10/13 03:47:45;;;;;;;7.50;3.10;;;;;;;13.07;87.83;100212.09;130967;1254;108580;-77
2023/10/13 03:51:01;;;;;;;6.30;2.90;;;;;;;13.05;87.48;100208.70;130957;1254;107000;-77
2023/10/13 03:54:08;;;;;;;5.40;2.60;;;;;;;13.05;87.59;100213.76;131095;1257;108426;-77
2023/10/13 03:57:13;;;;;;;6.40;2.20;;;;;;;13.06;87.48;100212.38;131063;1251;107255;-77
2023/10/13 04:00:24;;;;;;;4.90;2.10;;;;;;;13.05;87.29;100210.17;131050;1264;108683;-77
2023/10/13 04:03:38;;;;;;;6.60;2.00;;;;;;;13.02;87.25;100208.61;131160;1251;107396;-78
2023/10/13 04:06:51;;;;;;;5.00;1.90;;;;;;;12.98;87.14;100214.91;131082;1254;106736;-77
2023/10/13 04:16:52;;;;;;;5.10;1.80;;;;;;;12.90;86.98;100206.28;131079;1253;107796;-78
2023/10/13 04:20:32;;;;;;;6.50;1.50;;;;;;;12.90;87.03;100202.85;131217;1251;109004;-78
2023/10/13 04:30:27;;;;;;;5.50;1.60;;;;;;;12.83;86.87;100203.52;131147;1254;106649;-79
2023/10/13 04:33:51;;;;;;;5.80;1.50;;;;;;;12.79;86.84;100205.05;131163;1250;107780;-78
2023/10/13 04:37:22;;;;;;;5.50;1.40;;;;;;;12.76;87.02;100209.09;131022;1251;107241;-78
2023/10/13 04:40:25;;;;;;;4.70;1.30;;;;;;;12.77;86.97;100213.95;131102;1254;107044;-78
2023/10/13 04:43:55;;;;;;;4.00;1.40;;;;;;;12.78;86.96;100217.73;131243;1253;106298;-78
2023/10/13 04:47:17;;;;;;;6.00;1.50;;;;;;;12.81;86.83;100214.29;131204;1250;106809;-78
2023/10/13 04:50:27;;;;;;;4.80;1.20;;;;;;;12.82;86.95;100213.42;131434;1253;106467;-78
2023/10/13 04:53:34;;;;;;;4.70;1.20;;;;;;;12.80;87.03;100218.08;131060;1254;107030;-78
2023/10/13 05:03:51;;;;;;;6.00;1.30;;;;;;;12.80;87.15;100212.02;135102;1250;107655;-77
2023/10/13 05:44:37;;;;;;;3.30;1.30;;;;;;;12.92;87.34;100230.11;131005;1262;108719;-79
2023/10/13 05:48:02;;;;;;;5.00;1.40;;;;;;;12.93;87.27;100224.86;131082;1251;108683;-78
2023/10/13 06:28:41;;;;;;;4.50;2.40;;;;;;;13.09;87.53;100247.04;130980;1253;106726;-78
2023/10/13 06:31:47;;;;;;;5.70;2.30;;;;;;;13.12;87.65;100244.79;131067;1254;107683;-79
2023/10/13 06:34:57;;;;;;;5.90;2.40;;;;;;;13.14;87.69;100240.36;131132;1254;108648;-79
2023/10/13 06:38:03;;;;;;;6.50;2.90;;;;;;;13.16;87.82;100240.19;131086;1250;106671;-79
2023/10/13 06:41:19;;;;;;;6.40;2.90;;;;;;;13.19;87.69;100237.77;131093;1252;107101;-79
2023/10/13 06:44:25;;;;;;;6.30;3.00;;;;;;;13.24;87.80;100257.33;131005;1253;107127;-78
2023/10/13 06:47:32;;;;;;;8.10;3.30;;;;;;;13.29;87.96;100257.70;131100;1253;108676;-78
2023/10/13 06:50:41;;;;;;;7.50;3.70;;;;;;;13.36;87.99;100258.61;131035;1253;106968;-78
2023/10/13 06:53:48;;;;;;;6.50;3.40;;;;;;;13.43;88.07;100257.15;130859;1254;242752;-79
2023/10/13 06:56:53;;;;;;;5.80;3.00;;;;;;;13.46;88.16;100257.14;131040;1250;106591;-78
2023/10/13 06:59:59;;;;;;;9.50;3.30;;;;;;;13.49;88.22;100259.61;130975;1254;107909;-79
2023/10/13 07:03:09;;;;;;;7.60;2.90;;;;;;;13.51;88.16;100260.93;130990;1253;107728;-78
2023/10/13 07:06:19;;;;;;;7.80;3.00;;;;;;;13.57;88.21;100259.61;131074;1254;106987;-79
2023/10/13 07:09:40;;;;;;;7.70;3.70;;;;;;;13.63;88.20;100253.56;130967;1253;107462;-78
2023/10/13 07:12:49;;;;;;;6.20;3.10;;;;;;;13.70;88.39;100257.80;131026;1250;106700;-79
2023/10/13 07:16:00;;;;;;;7.90;3.40;;;;;;;13.75;88.32;100258.99;131094;1253;108631;-79
2023/10/13 07:19:06;;;;;;;5.80;2.90;;;;;;;13.81;88.53;100254.41;131072;1254;107922;-79
2023/10/13 07:22:20;;;;;;;7.60;3.40;;;;;;;13.90;88.45;100249.84;131006;1266;107774;-78
2023/10/13 07:25:26;;;;;;;7.10;3.10;;;;;;;14.03;88.52;100249.91;131040;1251;107466;-79
2023/10/13 07:28:35;;;;;;;7.50;3.70;;;;;;;14.12;88.51;100247.61;131012;1253;106678;-79
2023/10/13 07:31:44;;;;;;;8.10;3.50;;;;;;;14.20;88.48;100243.70;131086;1255;108703;-79
2023/10/13 07:34:50;;;;;;;7.90;4.10;;;;;;;14.26;88.40;100238.36;131103;1264;106443;-79
2023/10/13 07:37:59;;;;;;;6.90;3.60;;;;;;;14.31;88.45;100236.29;131065;1254;108575;-79
2023/10/13 07:41:08;;;;;;;7.20;3.90;;;;;;;14.39;88.48;100237.74;130975;1255;107538;-79
2023/10/13 07:44:14;;;;;;;6.60;3.30;;;;;;;14.48;88.35;100237.35;131075;1250;107217;-79
2023/10/13 07:47:20;;;;;;;8.00;3.60;;;;;;;14.57;88.40;100234.45;131016;1253;108129;-79
2023/10/13 07:50:26;;;;;;;8.20;3.70;;;;;;;14.61;88.15;100230.98;131065;1253;107200;-79
2023/10/13 07:53:37;;;;;;;8.80;3.50;;;;;;;14.65;88.39;100234.77;130948;1250;105396;-79
2023/10/13 07:56:43;;;;;;;8.50;3.20;;;;;;;14.68;88.16;100228.70;130994;1253;106630;-79
2023/10/13 07:59:51;;;;;;;7.70;3.50;;;;;;;14.74;88.36;100224.02;130979;1250;106516;-79
2023/10/13 08:03:19;;;;;;;8.10;3.80;;;;;;;14.83;88.38;100224.00;131066;1250;106352;-78
2023/10/13 08:06:28;;;;;;;10.40;3.90;;;;;;;14.91;88.16;100213.77;131150;1253;107824;-79
2023/10/13 08:09:40;;;;;;;9.40;4.30;;;;;;;14.96;88.21;100204.98;131058;1254;106541;-79
2023/10/13 08:12:46;;;;;;;9.50;5.00;;;;;;;15.00;88.07;100205.71;130979;1254;107107;-79
2023/10/13 08:15:53;;;;;;;8.60;3.80;;;;;;;15.06;88.19;100208.61;131072;1250;107949;-79
2023/10/13 08:19:01;;;;;;;9.70;4.20;;;;;;;15.11;88.03;100206.74;131066;1253;107642;-79
2023/10/13 08:22:23;;;;;;;9.50;4.50;;;;;;;15.15;88.17;100210.36;131077;1250;107899;-79
2023/10/13 08:26:29;;;;;;;8.50;4.00;;;;;;;15.20;87.98;100211.71;131021;1250;108671;-79
2023/10/13 08:29:53;;;;;;;9.60;4.40;;;;;;;15.22;87.82;100209.95;130949;1253;107616;-79
2023/10/13 08:32:44;;;;;;;8.90;4.10;;;;;;;15.22;87.99;100206.16;131014;1254;106814;-79
2023/10/13 08:36:05;;;;;;;8.70;4.30;;;;;;;15.22;88.16;100206.33;131039;1254;106756;-79
2023/10/13 08:39:57;;;;;;;8.50;4.90;;;;;;;15.21;88.09;100207.36;131006;1250;107658;-79
2023/10/13 08:43:09;;;;;;;10.00;5.00;;;;;;;15.25;88.18;100203.20;131051;1253;107874;-79
2023/10/13 08:46:27;;;;;;;9.60;4.80;;;;;;;15.32;88.33;100205.11;130988;1253;107877;-79
2023/10/13 08:49:40;;;;;;;8.60;4.80;;;;;;;15.42;88.43;100201.46;131074;1255;108653;-79
2023/10/13 08:52:49;;;;;;;8.00;4.60;;;;;;;15.47;88.38;100197.98;131020;1254;107413;-79
2023/10/13 08:56:10;;;;;;;10.50;5.00;;;;;;;15.53;88.48;100196.90;130988;1254;107821;-79
2023/10/13 08:59:22;;;;;;;9.70;5.10;;;;;;;15.58;88.44;100191.80;131067;1250;106731;-79
2023/10/13 09:09:26;;;;;;;9.10;5.50;;;;;;;15.75;88.62;100181.78;131013;1254;106623;-79
2023/10/13 09:12:39;;;;;;;8.80;5.00;;;;;;;15.88;88.59;100171.27;131010;1256;106886;-79
2023/10/13 09:19:05;;;;;;;11.90;5.80;;;;;;;16.24;88.71;100163.71;131015;1250;108406;-79
2023/10/13 09:22:24;;;;;;;7.50;5.50;;;;;;;16.40;88.76;100166.84;130960;1251;107780;-79
2023/10/13 09:25:34;;;;;;;10.60;6.00;;;;;;;16.50;88.49;100163.88;131042;1250;106783;-79
2023/10/13 09:28:39;;;;;;;10.90;5.60;;;;;;;16.59;88.49;100160.98;131009;1254;108623;-79
2023/10/13 09:31:47;;;;;;;9.20;5.30;;;;;;;16.71;88.46;100162.91;131075;1253;106512;-80
2023/10/13 09:34:54;;;;;;;9.60;5.40;;;;;;;16.81;88.59;100161.77;131061;1251;107615;-79
2023/10/13 09:38:02;;;;;;;11.50;5.90;;;;;;;16.91;88.55;100159.48;131177;1256;107637;-79
2023/10/13 09:41:17;;;;;;;9.50;5.60;;;;;;;16.97;88.42;100163.75;131165;1251;107568;-79
2023/10/13 09:44:23;;;;;;;10.40;6.10;;;;;;;17.00;88.40;100164.44;131052;1251;108646;-79
2023/10/13 09:47:36;;;;;;;9.40;5.90;;;;;;;17.01;88.35;100163.00;130998;1265;107527;-79
2023/10/13 09:50:44;;;;;;;11.70;5.50;;;;;;;16.97;88.22;100156.87;131038;1254;106849;-79
2023/10/13 09:53:58;;;;;;;8.30;5.30;;;;;;;16.97;88.30;100153.27;131023;1256;107810;-79
2023/10/13 09:57:16;;;;;;;9.60;5.80;;;;;;;17.02;88.51;100152.76;131071;1253;106644;-79
2023/10/13 10:04:07;;;;;;;10.80;6.30;;;;;;;17.32;88.55;100148.20;131027;1251;108519;-79
2023/10/13 10:07:24;;;;;;;14.20;7.30;;;;;;;17.54;88.48;100145.52;130979;1266;106445;-79
2023/10/13 10:10:49;;;;;;;11.20;6.50;;;;;;;17.70;88.36;100141.50;131026;1253;107347;-79
2023/10/13 10:14:14;;;;;;;12.00;6.70;;;;;;;17.77;88.08;100135.88;131115;1256;107371;-79
2023/10/13 10:17:21;;;;;;;9.80;6.30;;;;;;;17.85;88.19;100130.52;130995;1266;108232;-79
2023/10/13 10:20:42;;;;;;;11.40;6.70;;;;;;;17.95;87.95;100123.99;131086;1251;106684;-79
2023/10/13 10:23:54;;;;;;;11.40;7.00;;;;;;;17.99;87.61;100115.65;130968;1256;107860;-79
2023/10/13 10:27:00;;;;;;;9.70;6.20;;;;;;;17.95;87.43;100105.97;131015;1253;107040;-79
2023/10/13 10:30:13;;;;;;;11.10;7.00;;;;;;;17.92;87.46;100103.64;131035;1261;107788;-79
2023/10/13 10:33:20;;;;;;;10.30;5.60;;;;;;;17.91;87.61;100102.80;131035;1253;107261;-79
2023/10/13 10:36:32;;;;;;;8.70;5.90;;;;;;;17.93;87.97;100099.23;131123;1253;107721;-79
2023/10/13 10:39:46;;;;;;;13.30;7.30;;;;;;;17.97;87.84;100093.09;131043;1255;106739;-79
2023/10/13 10:42:55;;;;;;;9.80;6.60;;;;;;;18.03;87.50;100091.61;131040;1250;107126;-79
2023/10/13 10:46:01;;;;;;;9.80;6.10;;;;;;;18.04;87.15;100084.80;131001;1251;106822;-79
2023/10/13 10:49:08;;;;;;;9.50;6.20;;;;;;;18.03;87.17;100080.77;131093;1254;108127;-79
2023/10/13 10:52:19;;;;;;;12.10;6.60;;;;;;;18.01;86.89;100076.70;131061;1253;109028;-79
2023/10/13 10:55:28;;;;;;;10.60;6.50;;;;;;;17.98;87.14;100073.59;131046;1256;107152;-79
2023/10/13 10:58:43;;;;;;;12.00;6.20;;;;;;;17.96;87.18;100071.91;130980;1250;108682;-79
2023/10/13 11:01:50;;;;;;;11.30;6.60;;;;;;;17.97;87.12;100066.52;130979;1253;107593;-79
2023/10/13 11:04:57;;;;;;;12.10;7.20;;;;;;;17.98;87.25;100061.98;131052;1251;107729;-79
2023/10/13 11:08:11;;;;;;;11.60;7.70;;;;;;;18.01;87.25;100054.73;130993;1255;107689;-79
2023/10/13 11:11:18;;;;;;;12.60;7.40;;;;;;;18.03;87.38;100047.42;131019;1253;107842;-79
2023/10/13 11:14:25;;;;;;;14.60;8.10;;;;;;;18.07;87.51;100041.98;131018;1250;107918;-79
2023/10/13 11:17:43;;;;;;;13.50;7.40;;;;;;;18.09;87.39;100040.27;131029;1255;107482;-79
2023/10/13 11:20:53;;;;;;;12.40;8.20;;;;;;;18.09;87.43;100037.78;131069;1254;107068;-79
2023/10/13 11:24:08;;;;;;;12.10;7.40;;;;;;;18.17;87.53;100037.70;131037;1253;107510;-79
2023/10/13 11:27:21;;;;;;;20.30;12.50;;;;;;;18.30;87.67;100039.10;131078;1253;107724;-79
2023/10/13 11:30:40;;;;;;;15.90;9.50;;;;;;;18.45;87.71;100034.27;131036;1254;108324;-79
2023/10/13 11:33:47;;;;;;;14.30;8.20;;;;;;;18.58;87.40;100035.66;131090;1260;107863;-79
2023/10/13 11:36:53;;;;;;;13.20;8.00;;;;;;;18.69;87.27;100027.23;131060;1256;107546;-79
2023/10/13 11:39:58;;;;;;;15.20;8.60;;;;;;;18.78;87.33;100020.74;131032;1256;108200;-79
2023/10/13 11:43:05;;;;;;;14.60;8.80;;;;;;;18.87;87.50;100019.64;131041;1253;107554;-79
2023/10/13 11:46:14;;;;;;;16.50;8.80;;;;;;;18.97;87.31;100012.54;131073;1250;106549;-79
2023/10/13 11:49:31;;;;;;;11.60;8.20;;;;;;;19.02;87.17;100009.80;131084;1254;107049;-79
2023/10/13 11:52:37;;;;;;;15.80;8.20;;;;;;;19.07;87.40;100006.27;130993;1253;108309;-81
2023/10/13 11:55:42;;;;;;;13.40;8.50;;;;;;;19.14;87.28;99995.31;131025;1262;106717;-80
2023/10/13 11:58:49;;;;;;;13.70;8.10;;;;;;;19.20;86.90;99987.97;131063;1250;107201;-79
2023/10/13 12:05:27;;;;;;;14.40;8.60;;;;;;;19.27;86.76;99996.89;131043;1253;106807;-79
2023/10/13 12:08:38;;;;;;;12.30;8.40;;;;;;;19.25;86.88;99994.73;131163;1263;107469;-79
2023/10/13 12:11:45;;;;;;;11.80;8.40;;;;;;;19.34;86.71;99978.48;131034;1253;108581;-80
2023/10/13 12:14:55;;;;;;;13.80;7.50;;;;;;;19.45;86.32;99974.25;130996;1253;107824;-79
2023/10/13 12:18:03;;;;;;;17.10;10.40;;;;;;;19.53;85.51;99972.40;131147;1257;108662;-79
2023/10/13 12:21:19;;;;;;;35.70;20.80;;;;;;;19.51;84.86;99969.34;131121;1256;106716;-79
2023/10/13 12:24:39;;;;;;;16.50;9.90;;;;;;;19.59;84.88;99959.04;131064;1253;106848;-79
2023/10/13 12:27:48;;;;;;;25.60;16.70;;;;;;;19.68;84.54;99949.90;130967;1253;106985;-79
2023/10/13 12:30:54;;;;;;;25.60;17.00;;;;;;;19.78;84.40;99957.63;131044;1253;107846;-79
2023/10/13 12:34:06;;;;;;;27.40;16.50;;;;;;;19.87;84.31;99965.89;131038;1253;106973;-79
2023/10/13 12:37:36;;;;;;;22.30;14.30;;;;;;;19.89;84.24;99970.62;131078;1253;108529;-79
2023/10/13 12:51:07;;;;;;;17.50;11.70;;;;;;;19.67;84.03;99963.77;131015;1254;108775;-79
2023/10/13 12:54:19;;;;;;;24.00;16.00;;;;;;;19.68;83.82;99949.89;131113;1253;107773;-79
2023/10/13 12:57:25;;;;;;;15.00;9.60;;;;;;;19.64;83.82;99943.88;131140;1253;108197;-79
2023/10/13 13:00:33;;;;;;;17.00;10.90;;;;;;;19.57;83.79;99940.69;131077;1251;106939;-79
2023/10/13 13:03:44;;;;;;;72.40;36.00;;;;;;;19.52;83.68;99924.29;131020;1250;107536;-79
2023/10/13 13:06:51;;;;;;;20.60;10.40;;;;;;;19.52;83.74;99925.20;131018;1250;106933;-79
2023/10/13 13:09:59;;;;;;;15.80;8.20;;;;;;;19.54;83.46;99916.11;131004;1254;107806;-79
2023/10/13 13:13:09;;;;;;;21.80;12.70;;;;;;;19.58;83.34;99918.70;131024;1256;107862;-79
2023/10/13 13:16:15;;;;;;;62.10;33.00;;;;;;;19.62;83.21;99922.29;130959;1253;108760;-79
2023/10/13 13:19:25;;;;;;;40.90;22.80;;;;;;;19.66;83.04;99919.35;131017;1253;106715;-79
2023/10/13 13:22:31;;;;;;;67.00;37.20;;;;;;;19.66;82.94;99914.19;130980;1256;107057;-79
2023/10/13 13:25:42;;;;;;;27.80;16.80;;;;;;;19.66;82.88;99913.67;130959;1251;107296;-79
2023/10/13 13:28:50;;;;;;;15.70;11.10;;;;;;;19.65;82.70;99910.36;131057;1250;107427;-79
2023/10/13 13:31:56;;;;;;;21.10;13.10;;;;;;;19.63;82.59;99907.92;131180;1250;107183;-78
2023/10/13 13:35:05;;;;;;;35.20;21.20;;;;;;;19.61;82.41;99904.81;131086;1260;107997;-77
2023/10/13 13:38:16;;;;;;;191.70;110.80;;;;;;;19.59;82.45;99903.45;131104;1253;107804;-78
2023/10/13 13:41:22;;;;;;;39.60;21.90;;;;;;;19.59;82.30;99905.41;130994;1253;108569;-77
2023/10/13 13:44:35;;;;;;;44.50;29.20;;;;;;;19.59;82.14;99905.98;131106;1253;107003;-78
2023/10/13 13:47:41;;;;;;;26.20;18.10;;;;;;;19.56;82.07;99899.77;131038;1256;108215;-77
2023/10/13 13:50:52;;;;;;;24.20;16.20;;;;;;;19.51;82.06;99897.73;131081;1250;106690;-77
2023/10/13 13:53:58;;;;;;;22.20;16.30;;;;;;;19.45;82.03;99897.52;131064;1254;108450;-78
2023/10/13 13:57:05;;;;;;;19.00;15.90;;;;;;;19.39;81.96;99893.00;131073;1255;108640;-77
2023/10/13 14:00:17;;;;;;;29.50;22.30;;;;;;;19.31;82.14;99889.10;131115;1253;107681;-77
2023/10/13 14:03:31;;;;;;;53.90;40.50;;;;;;;19.23;82.17;99892.36;131024;1253;107371;-77
2023/10/13 14:06:37;;;;;;;46.20;33.10;;;;;;;19.18;82.31;99885.45;131090;1254;107186;-77
2023/10/13 14:09:44;;;;;;;32.00;23.70;;;;;;;19.16;82.24;99879.69;131104;1255;107499;-77
2023/10/13 14:12:49;;;;;;;17.50;13.10;;;;;;;19.14;82.22;99872.89;131059;1253;107747;-77
2023/10/13 14:15:56;;;;;;;16.30;12.60;;;;;;;19.12;82.12;99875.21;131037;1253;108694;-77
2023/10/13 14:19:07;;;;;;;13.90;9.70;;;;;;;19.10;82.17;99868.86;130995;1250;107604;-76
2023/10/13 14:22:13;;;;;;;13.60;8.50;;;;;;;19.07;82.11;99855.77;131075;1253;108693;-76
2023/10/13 14:25:24;;;;;;;12.30;8.40;;;;;;;19.02;82.30;99850.43;131429;1250;106919;-78
2023/10/13 14:28:34;;;;;;;11.00;7.90;;;;;;;18.97;82.31;99855.14;131490;1253;107963;-77
2023/10/13 14:31:41;;;;;;;13.90;8.50;;;;;;;18.94;82.21;99850.95;131601;1250;107686;-78
2023/10/13 14:34:54;;;;;;;11.30;7.90;;;;;;;18.90;82.27;99848.11;131452;1250;106767;-80
2023/10/13 14:37:59;;;;;;;10.80;8.00;;;;;;;18.87;82.22;99844.60;131119;1254;106674;-78
2023/10/13 14:41:05;;;;;;;12.30;8.80;;;;;;;18.82;82.19;99844.04;131336;1253;107607;-78
2023/10/13 14:44:12;;;;;;;11.60;7.90;;;;;;;18.78;82.33;99839.63;131095;1253;107726;-78
2023/10/13 14:47:18;;;;;;;11.20;8.70;;;;;;;18.73;82.19;99835.16;131096;1253;107667;-78
2023/10/13 14:50:24;;;;;;;12.90;8.20;;;;;;;18.67;82.35;99834.70;131108;1264;106948;-78
2023/10/13 14:53:31;;;;;;;10.00;6.90;;;;;;;18.59;82.37;99834.41;131082;1250;106553;-78
2023/10/13 14:56:37;;;;;;;11.10;7.70;;;;;;;18.53;82.48;99834.02;131151;1253;106754;-78
2023/10/13 14:59:44;;;;;;;13.00;7.30;;;;;;;18.49;82.59;99828.60;131468;1250;106674;-78
2023/10/13 15:02:49;;;;;;;12.10;7.40;;;;;;;18.47;82.50;99827.27;131327;1251;108490;-77
2023/10/13 15:05:56;;;;;;;12.10;7.40;;;;;;;18.44;82.62;99820.02;131066;1253;108779;-78
2023/10/13 15:09:03;;;;;;;9.90;7.60;;;;;;;18.41;82.52;99817.20;131398;1253;107044;-78
2023/10/13 15:12:10;;;;;;;9.70;7.10;;;;;;;18.37;82.61;99814.11;131481;1250;106438;-76
2023/10/13 15:15:16;;;;;;;8.20;6.80;;;;;;;18.34;82.71;99812.88;132124;1253;107393;-76
2023/10/13 15:18:23;;;;;;;9.60;7.20;;;;;;;18.32;82.72;99808.61;131205;1253;107870;-76
2023/10/13 15:21:34;;;;;;;10.70;7.40;;;;;;;18.31;82.64;99809.31;131369;1253;106525;-76
2023/10/13 15:24:45;;;;;;;10.40;7.00;;;;;;;18.29;82.66;99803.47;131490;1253;107596;-77
2023/10/13 15:27:55;;;;;;;8.90;7.30;;;;;;;18.25;82.70;99797.88;131501;1255;105633;-77
2023/10/13 15:31:10;;;;;;;11.50;7.40;;;;;;;18.19;82.73;99792.63;131449;1253;107652;-77
2023/10/13 15:34:17;;;;;;;10.70;7.10;;;;;;;18.12;82.77;99788.59;132071;1253;106753;-76
2023/10/13 15:37:25;;;;;;;12.80;7.60;;;;;;;18.05;82.97;99779.38;131281;1265;107445;-78
2023/10/13 15:40:30;;;;;;;11.60;7.80;;;;;;;18.01;82.93;99779.70;131314;1251;108550;-77
2023/10/13 15:43:39;;;;;;;13.30;8.80;;;;;;;17.99;83.04;99778.79;131639;1253;108274;-76
2023/10/13 15:46:48;;;;;;;10.40;8.40;;;;;;;17.97;83.12;99774.77;131085;1251;106616;-76
2023/10/13 15:49:53;;;;;;;10.70;8.10;;;;;;;17.92;83.08;99771.02;131470;1253;107641;-77
2023/10/13 15:53:01;;;;;;;9.40;7.80;;;;;;;17.87;83.14;99772.77;131853;1250;108396;-77
2023/10/13 15:56:11;;;;;;;10.40;7.40;;;;;;;17.80;83.30;99777.23;131322;1256;107792;-77
2023/10/13 15:59:17;;;;;;;9.70;6.90;;;;;;;17.75;83.45;99773.55;131436;1254;107458;-76
2023/10/13 16:02:23;;;;;;;12.60;7.90;;;;;;;17.72;83.42;99770.48;131807;1253;107589;-77
2023/10/13 16:05:34;;;;;;;10.20;7.90;;;;;;;17.71;83.62;99764.03;131278;1261;108430;-76
2023/10/13 16:08:42;;;;;;;11.00;8.20;;;;;;;17.68;83.62;99755.15;131342;1251;106870;-77
2023/10/13 16:11:48;;;;;;;30.40;24.80;;;;;;;17.65;83.72;99754.82;131218;1251;106568;-77
2023/10/13 16:14:55;;;;;;;18.00;13.90;;;;;;;17.59;83.74;99746.95;131220;1254;106961;-77
2023/10/13 16:18:03;;;;;;;11.90;8.90;;;;;;;17.54;83.85;99744.11;131408;1249;106786;-77
2023/10/13 16:21:09;;;;;;;12.10;8.30;;;;;;;17.51;83.97;99742.08;131150;1250;106692;-78
2023/10/13 16:24:17;;;;;;;10.80;7.40;;;;;;;17.48;84.03;99737.77;131169;1253;107752;-77